La Fontaine, IN (46940)

3:16 AM EST on February 06, 2016 (GMT -0500)
Mississinewa Lake | | Change Station
CLOSE
Current Station
Personal Weather Station
Location: LaFontaine, IN
Elevation: 807 ft
Nearby Weather Stations

Elev 807 ft 40.66 °N, 85.79 °W | Updated 1 minute ago

Mostly Cloudy
Mostly Cloudy
22.9 °F
Feels Like 23 °F
N
0.0
Wind Variable Wind from WSW
Gusts 0.0 mph

Today
High -- | Low -- °F
--% Chance of Precip.
Yesterday
High -- | Low -- °F
Precip. -- in
Pressure 30.33 in
Visibility 7.0 miles
Clouds Clear
Windchill 23 °F
Dew Point 21 °F
Humidity 92%
Rainfall 0.00 in
Snow Depth Not available.
7:48 AM 6:06 PM
Waning Crescent, 7% visible
METAR KMZZ 060755Z AUTO 24004KT 7SM CLR M05/M08 A3033 RMK AO2 T10501083
Pressure 30.33 in
Visibility 7.0 miles
Clouds Clear
Windchill 23 °F
Dew Point 21 °F
Humidity 92%
Rainfall 0.00 in
Snow Depth Not available.
7:48 AM 6:06 PM
Waning Crescent, 7% visible
METAR KMZZ 060755Z AUTO 24004KT 7SM CLR M05/M08 A3033 RMK AO2 T10501083

10-Day Weather Forecast

Almanac

Astronomy

Feb. 06, 2016 Rise Set
Actual Time
Civil Twilight
Nautical Twilight
Astronomical Twilight
Moon
Length of Visible Light
Length of Day
Tomorrow will be .
, % of the Moon is Illuminated

Today's Extremes

State Highs State Lows

Community

WunderPhotos

Upload Photos

1,890,933 photos uploaded!

WunderBlog® & News

Nearby

Air Quality

  Air Quality AQ Index Pollutant
Not available.

Snow Depth

Station Depth Elevation

Earthquake Activity

City Distance Mag. Time & Date
Minimum magnitude displayed is 2.5.

Coastal Water Temperatures

Place Temperature

Stations

Nearby Weather Stations

Station Location Temp. Windchill Dew Point Humidity Wind Precip. Elev Updated Type
                   

Watches & Warnings

There are currently no watches in effect.